createdAt,value
2019-04-07T00:00:42.671Z,89.00
2019-04-07T00:03:10.693Z,89.70
2019-04-07T00:05:38.171Z,89.70
2019-04-07T00:08:05.895Z,90.20
2019-04-07T00:10:33.435Z,90.10
2019-04-07T00:13:00.967Z,90.20
2019-04-07T00:15:29.015Z,90.50
2019-04-07T00:17:57.739Z,90.30
2019-04-07T00:20:25.371Z,90.40
2019-04-07T00:22:52.939Z,90.50
2019-04-07T00:25:21.756Z,90.50
2019-04-07T00:27:49.350Z,90.60
2019-04-07T00:30:16.934Z,90.80
2019-04-07T00:32:44.332Z,90.80
2019-04-07T00:35:22.113Z,90.90
2019-04-07T00:37:41.769Z,91.00
2019-04-07T00:40:09.624Z,91.10
2019-04-07T00:42:38.053Z,91.70
2019-04-07T00:45:08.712Z,91.60
2019-04-07T00:47:36.405Z,91.50
2019-04-07T00:50:04.708Z,91.60
2019-04-07T00:52:33.750Z,91.70
2019-04-07T00:55:01.547Z,91.70
2019-04-07T00:57:29.632Z,91.70
2019-04-07T00:59:57.841Z,91.80
2019-04-07T01:02:25.937Z,91.90
2019-04-07T01:04:53.722Z,91.90
2019-04-07T01:07:21.260Z,92.00
2019-04-07T01:09:48.736Z,92.10
2019-04-07T01:12:16.238Z,92.10
2019-04-07T01:14:44.243Z,92.10
2019-04-07T01:17:12.543Z,92.20
2019-04-07T01:19:40.699Z,92.20
2019-04-07T01:22:09.972Z,92.40
2019-04-07T01:24:37.980Z,92.20
2019-04-07T01:27:05.671Z,92.20
2019-04-07T01:29:33.289Z,92.30
2019-04-07T01:32:01.003Z,92.30
2019-04-07T01:34:29.018Z,92.40
2019-04-07T01:36:57.697Z,92.40
2019-04-07T01:39:25.974Z,92.40
2019-04-07T01:42:01.693Z,92.40
2019-04-07T01:44:39.773Z,92.50
2019-04-07T01:47:25.220Z,92.60
2019-04-07T01:50:10.953Z,92.60
2019-04-07T01:52:49.187Z,92.70
2019-04-07T01:55:36.400Z,92.70
2019-04-07T01:58:18.474Z,92.80
2019-04-07T02:01:00.313Z,92.80
2019-04-07T02:03:47.535Z,92.80
2019-04-07T02:06:37.589Z,92.90
2019-04-07T02:09:13.842Z,93.20
2019-04-07T02:12:06.960Z,93.00
2019-04-07T02:15:03.166Z,93.00
2019-04-07T02:18:05.089Z,93.20
2019-04-07T02:21:19.569Z,93.20
2019-04-07T02:24:22.323Z,93.30
2019-04-07T02:27:15.434Z,93.40
2019-04-07T02:30:03.705Z,93.40
2019-04-07T02:32:51.174Z,94.00
2019-04-07T02:35:33.299Z,94.10
2019-04-07T02:38:35.134Z,94.10
2019-04-07T02:41:38.613Z,94.20
2019-04-07T02:44:29.363Z,94.20
2019-04-07T02:47:08.417Z,94.20
2019-04-07T02:49:59.393Z,95.10
2019-04-07T02:52:50.442Z,95.00
2019-04-07T02:55:56.870Z,94.90
2019-04-07T02:58:44.333Z,94.90
2019-04-07T03:01:24.141Z,94.90
2019-04-07T03:04:11.689Z,95.00
2019-04-07T03:06:56.997Z,95.00
2019-04-07T03:10:02.917Z,95.00
2019-04-07T03:12:49.186Z,95.00
2019-04-07T03:15:48.472Z,95.00
2019-04-07T03:18:26.974Z,95.10
2019-04-07T03:21:13.097Z,95.10
2019-04-07T03:23:54.119Z,95.20
2019-04-07T03:26:56.199Z,95.30
2019-04-07T03:29:45.446Z,95.30
2019-04-07T03:32:49.316Z,95.30
2019-04-07T03:35:43.760Z,95.40
2019-04-07T03:38:31.559Z,96.20
2019-04-07T03:41:19.582Z,96.20
2019-04-07T03:44:03.330Z,96.10
2019-04-07T03:46:36.490Z,96.10
2019-04-07T03:49:12.213Z,96.20
2019-04-07T03:51:51.578Z,96.30
2019-04-07T03:54:45.144Z,96.30
2019-04-07T03:57:35.436Z,96.30
2019-04-07T04:00:23.037Z,96.30
2019-04-07T04:03:22.783Z,96.40
2019-04-07T04:06:04.752Z,96.30
2019-04-07T04:08:42.545Z,96.40
2019-04-07T04:11:18.599Z,96.50
2019-04-07T04:14:04.596Z,96.70
2019-04-07T04:16:37.681Z,96.70
2019-04-07T04:19:05.251Z,96.80
2019-04-07T04:21:33.252Z,96.80
2019-04-07T04:24:02.340Z,97.20
2019-04-07T04:26:29.763Z,97.00
2019-04-07T04:28:57.306Z,97.10
2019-04-07T04:31:25.457Z,97.40
2019-04-07T04:33:54.282Z,97.60
2019-04-07T04:36:22.540Z,98.30
2019-04-07T04:38:50.240Z,98.20
2019-04-07T04:41:19.053Z,98.30
2019-04-07T04:43:47.237Z,98.40
2019-04-07T04:46:15.121Z,98.40
2019-04-07T04:48:43.046Z,98.40
2019-04-07T04:51:10.687Z,98.40
2019-04-07T04:53:38.581Z,98.50
2019-04-07T04:56:06.104Z,98.60
2019-04-07T04:58:33.481Z,98.60
2019-04-07T05:01:04.520Z,98.70
2019-04-07T05:03:32.780Z,98.70
2019-04-07T05:06:01.397Z,98.70
2019-04-07T05:08:29.809Z,98.80
2019-04-07T05:10:57.616Z,98.80
2019-04-07T05:13:25.130Z,98.90
2019-04-07T05:15:52.737Z,99.00
2019-04-07T05:18:20.305Z,99.00
2019-04-07T05:20:47.868Z,99.10
2019-04-07T05:23:15.410Z,99.10
2019-04-07T05:25:42.890Z,99.10
2019-04-07T05:28:10.214Z,99.20
2019-04-07T05:30:38.006Z,99.20
2019-04-07T05:33:06.012Z,99.30
2019-04-07T05:35:34.176Z,99.40
2019-04-07T05:38:04.800Z,99.50
2019-04-07T05:40:31.846Z,99.90
2019-04-07T05:42:59.903Z,99.90
2019-04-07T05:45:27.971Z,99.90
2019-04-07T05:47:58.856Z,99.90
2019-04-07T05:50:28.688Z,99.90
2019-04-07T05:52:56.718Z,99.90
2019-04-07T05:55:24.520Z,99.90
2019-04-07T05:57:52.319Z,99.90
2019-04-07T06:00:20.747Z,99.90
2019-04-07T06:02:49.563Z,99.90
2019-04-07T06:05:17.792Z,99.90
2019-04-07T06:07:46.965Z,99.90
2019-04-07T06:10:15.454Z,99.90
2019-04-07T06:12:46.345Z,99.90
2019-04-07T06:15:12.888Z,99.90
2019-04-07T06:17:41.107Z,99.90
2019-04-07T06:20:11.761Z,99.90
2019-04-07T06:22:38.120Z,99.90
2019-04-07T06:25:07.083Z,99.90
2019-04-07T06:27:34.815Z,99.90
2019-04-07T06:30:02.779Z,99.90
2019-04-07T06:32:30.975Z,99.90
2019-04-07T06:34:59.373Z,99.90
2019-04-07T06:37:29.345Z,99.70
2019-04-07T06:39:57.733Z,99.60
2019-04-07T06:42:25.387Z,99.40
2019-04-07T06:44:52.923Z,99.40
2019-04-07T06:47:37.502Z,99.20
2019-04-07T06:50:47.570Z,99.00
2019-04-07T06:53:25.972Z,98.80
2019-04-07T06:56:19.704Z,98.40
2019-04-07T06:59:05.719Z,98.20
2019-04-07T07:01:45.928Z,97.80
2019-04-07T07:04:33.058Z,97.60
2019-04-07T07:07:19.202Z,97.20
2019-04-07T07:10:06.553Z,96.90
2019-04-07T07:12:48.090Z,96.50
2019-04-07T07:15:36.960Z,96.20
2019-04-07T07:18:14.182Z,96.20
2019-04-07T07:21:07.563Z,96.10
2019-04-07T07:23:39.666Z,95.60
2019-04-07T07:26:49.509Z,95.30
2019-04-07T07:29:19.032Z,95.10
2019-04-07T07:31:51.214Z,94.90
2019-04-07T07:34:17.660Z,94.60
2019-04-07T07:36:46.715Z,94.10
2019-04-07T07:39:15.022Z,92.10
2019-04-07T07:41:44.467Z,91.80
2019-04-07T07:44:12.383Z,90.60
2019-04-07T07:46:41.203Z,90.50
2019-04-07T07:49:08.965Z,90.40
2019-04-07T07:51:39.261Z,90.40
2019-04-07T07:54:06.172Z,90.50
2019-04-07T07:56:34.442Z,90.10
2019-04-07T07:59:02.594Z,89.70
2019-04-07T08:01:32.201Z,88.90
2019-04-07T08:04:00.803Z,88.40
2019-04-07T08:06:29.433Z,87.70
2019-04-07T08:09:07.438Z,87.30
2019-04-07T08:11:30.943Z,86.80
2019-04-07T08:13:59.719Z,85.90
2019-04-07T08:16:31.230Z,84.70
2019-04-07T08:19:16.774Z,83.60
2019-04-07T08:21:45.440Z,83.20
2019-04-07T08:24:18.585Z,83.10
2019-04-07T08:26:45.867Z,82.20
2019-04-07T08:29:13.888Z,80.40
2019-04-07T08:31:41.609Z,79.90
2019-04-07T08:34:09.886Z,75.40
2019-04-07T08:36:42.498Z,76.10
2019-04-07T08:39:19.636Z,76.70
2019-04-07T08:41:41.167Z,76.10
2019-04-07T08:44:07.171Z,75.30
2019-04-07T08:46:38.612Z,74.70
2019-04-07T08:49:04.747Z,74.20
2019-04-07T08:51:33.621Z,73.10
2019-04-07T08:54:04.155Z,72.80
2019-04-07T08:56:31.007Z,72.30
2019-04-07T08:59:01.124Z,72.10
2019-04-07T09:01:34.889Z,72.20
2019-04-07T09:04:02.854Z,72.80
2019-04-07T09:06:30.418Z,72.10
2019-04-07T09:09:05.902Z,71.80
2019-04-07T09:11:32.411Z,70.90
2019-04-07T09:14:02.128Z,71.10
2019-04-07T09:16:52.889Z,69.60
2019-04-07T09:19:28.869Z,68.70
2019-04-07T09:22:15.551Z,68.20
2019-04-07T09:25:06.361Z,67.30
2019-04-07T09:28:07.673Z,66.50
2019-04-07T09:31:03.124Z,66.10
2019-04-07T09:33:38.127Z,66.50
2019-04-07T09:36:23.437Z,66.80
2019-04-07T09:39:02.724Z,66.40
2019-04-07T09:41:45.641Z,65.20
2019-04-07T09:44:20.935Z,64.70
2019-04-07T09:46:56.354Z,64.20
2019-04-07T09:49:49.041Z,64.20
2019-04-07T09:52:37.080Z,59.00
2019-04-07T09:55:26.731Z,57.70
2019-04-07T09:58:03.206Z,58.00
2019-04-07T10:00:55.173Z,58.20
2019-04-07T10:03:56.321Z,58.80
2019-04-07T10:06:49.561Z,58.90
2019-04-07T10:09:34.047Z,58.20
2019-04-07T10:12:15.164Z,57.60
2019-04-07T10:15:02.866Z,57.80
2019-04-07T10:17:37.241Z,57.80
2019-04-07T10:20:32.571Z,56.70
2019-04-07T10:23:14.137Z,56.70
2019-04-07T10:26:01.271Z,53.50
2019-04-07T10:28:48.534Z,53.40
2019-04-07T10:31:38.854Z,53.70
2019-04-07T10:34:24.965Z,53.80
2019-04-07T10:37:12.011Z,54.20
2019-04-07T10:39:48.308Z,54.50
2019-04-07T10:42:41.286Z,53.80
2019-04-07T10:45:30.332Z,54.30
2019-04-07T10:48:17.932Z,54.50
2019-04-07T10:51:02.289Z,54.30
2019-04-07T10:54:02.756Z,54.20
2019-04-07T10:56:52.791Z,53.80
2019-04-07T10:59:30.707Z,53.60
2019-04-07T11:02:11.927Z,50.50
2019-04-07T11:05:09.524Z,50.50
2019-04-07T11:08:00.444Z,50.60
2019-04-07T11:10:46.677Z,50.20
2019-04-07T11:13:46.924Z,50.10
2019-04-07T11:16:33.779Z,48.80
2019-04-07T11:19:33.380Z,47.50
2019-04-07T11:22:20.579Z,47.80
2019-04-07T11:25:01.210Z,44.60
2019-04-07T11:27:57.269Z,45.30
2019-04-07T11:30:59.556Z,45.50
2019-04-07T11:33:35.059Z,45.50
2019-04-07T11:36:28.802Z,45.40
2019-04-07T11:39:05.835Z,45.00
2019-04-07T11:41:42.401Z,44.30
2019-04-07T11:44:33.897Z,45.40
2019-04-07T11:47:15.281Z,44.80
2019-04-07T11:50:00.369Z,43.80
2019-04-07T11:52:36.554Z,43.70
2019-04-07T11:55:12.233Z,44.20
2019-04-07T11:58:11.636Z,44.20
2019-04-07T12:00:48.801Z,43.80
2019-04-07T12:03:30.007Z,44.00
2019-04-07T12:06:14.351Z,42.70
2019-04-07T12:09:06.522Z,42.60
2019-04-07T12:11:50.438Z,41.00
2019-04-07T12:14:45.500Z,41.00
2019-04-07T12:17:30.261Z,38.20
2019-04-07T12:20:30.058Z,38.90
2019-04-07T12:23:23.376Z,39.70
2019-04-07T12:25:57.618Z,40.20
2019-04-07T12:28:49.982Z,39.50
2019-04-07T12:31:36.934Z,40.00
2019-04-07T12:34:33.278Z,39.60
2019-04-07T12:37:29.498Z,39.20
2019-04-07T12:40:32.370Z,39.20
2019-04-07T12:43:05.704Z,39.10
2019-04-07T12:46:07.940Z,39.40
2019-04-07T12:49:09.407Z,38.80
2019-04-07T12:51:44.802Z,38.90
2019-04-07T12:54:26.778Z,38.60
2019-04-07T12:57:20.894Z,38.50
2019-04-07T13:00:07.094Z,38.30
2019-04-07T13:02:57.512Z,38.60
2019-04-07T13:05:42.774Z,38.50
2019-04-07T13:08:29.191Z,38.50
2019-04-07T13:11:35.433Z,38.70
2019-04-07T13:14:29.502Z,39.00
2019-04-07T13:17:16.958Z,39.20
2019-04-07T13:20:08.363Z,39.30
2019-04-07T13:23:00.281Z,39.00
2019-04-07T13:25:47.468Z,38.20
2019-04-07T13:28:32.634Z,38.40
2019-04-07T13:31:31.906Z,38.70
2019-04-07T13:34:14.733Z,38.50
2019-04-07T13:36:54.163Z,38.20
2019-04-07T13:39:57.704Z,37.60
2019-04-07T13:42:44.418Z,37.20
2019-04-07T13:45:32.879Z,37.60
2019-04-07T13:48:32.385Z,38.20
2019-04-07T13:51:29.060Z,38.30
2019-04-07T13:54:32.975Z,39.20
2019-04-07T13:57:15.559Z,38.20
2019-04-07T14:00:15.913Z,38.70
2019-04-07T14:02:58.761Z,37.30
2019-04-07T14:05:33.198Z,37.10
2019-04-07T14:08:28.841Z,37.40
2019-04-07T14:11:21.974Z,37.60
2019-04-07T14:14:07.993Z,38.10
2019-04-07T14:17:07.320Z,38.50
2019-04-07T14:19:49.723Z,38.40
2019-04-07T14:22:42.121Z,37.50
2019-04-07T14:25:20.188Z,37.00
2019-04-07T14:28:02.499Z,37.20
2019-04-07T14:30:48.829Z,37.50
2019-04-07T14:33:36.955Z,37.40
2019-04-07T14:36:12.969Z,37.60
2019-04-07T14:38:45.616Z,38.00
2019-04-07T14:41:23.054Z,38.00
2019-04-07T14:44:12.893Z,38.10
2019-04-07T14:47:06.498Z,38.10
2019-04-07T14:50:00.461Z,38.10
2019-04-07T14:52:48.288Z,37.60
2019-04-07T14:55:32.258Z,37.40
2019-04-07T14:58:15.295Z,37.30
2019-04-07T15:01:04.627Z,37.20
2019-04-07T15:03:30.709Z,36.90
2019-04-07T15:05:59.568Z,36.50
2019-04-07T15:08:50.884Z,36.20
2019-04-07T15:11:36.896Z,36.30
2019-04-07T15:14:04.686Z,35.20
2019-04-07T15:16:32.866Z,35.70
2019-04-07T15:19:01.044Z,36.10
2019-04-07T15:21:30.180Z,36.40
2019-04-07T15:24:01.737Z,36.60
2019-04-07T15:26:27.177Z,36.10
2019-04-07T15:28:57.112Z,36.10
2019-04-07T15:31:24.957Z,36.10
2019-04-07T15:33:52.690Z,35.60
2019-04-07T15:36:21.080Z,35.70
2019-04-07T15:38:49.646Z,35.20
2019-04-07T15:41:19.076Z,35.20
2019-04-07T15:43:46.776Z,35.40
2019-04-07T15:46:16.618Z,35.60
2019-04-07T15:48:43.606Z,35.40
2019-04-07T15:51:13.281Z,35.50
2019-04-07T15:53:44.207Z,35.50
2019-04-07T15:56:13.135Z,35.60
2019-04-07T15:58:39.771Z,35.30
2019-04-07T16:01:09.385Z,34.90
2019-04-07T16:03:36.968Z,34.70
2019-04-07T16:06:05.682Z,34.40
2019-04-07T16:08:33.813Z,34.40
2019-04-07T16:11:01.909Z,34.50
2019-04-07T16:13:32.487Z,34.20
2019-04-07T16:16:00.195Z,34.10
2019-04-07T16:18:30.155Z,34.20
2019-04-07T16:20:57.761Z,34.10
2019-04-07T16:23:27.196Z,34.00
2019-04-07T16:25:58.407Z,32.70
2019-04-07T16:28:26.152Z,33.00
2019-04-07T16:30:54.256Z,33.20
2019-04-07T16:33:21.823Z,33.50
2019-04-07T16:35:54.006Z,33.90
2019-04-07T16:38:20.584Z,33.90
2019-04-07T16:40:49.041Z,34.20
2019-04-07T16:43:18.895Z,34.50
2019-04-07T16:45:47.179Z,34.90
2019-04-07T16:48:14.842Z,35.80
2019-04-07T16:50:42.649Z,36.30
2019-04-07T16:53:10.796Z,36.70
2019-04-07T16:55:41.714Z,35.80
2019-04-07T16:58:09.700Z,36.50
2019-04-07T17:00:38.394Z,36.50
2019-04-07T17:03:10.068Z,36.50
2019-04-07T17:05:38.090Z,36.30
2019-04-07T17:08:07.397Z,36.00
2019-04-07T17:10:35.418Z,35.20
2019-04-07T17:13:14.569Z,34.00
2019-04-07T17:15:37.340Z,33.40
2019-04-07T17:18:07.578Z,31.50
2019-04-07T17:20:37.685Z,31.70
2019-04-07T17:23:05.129Z,30.60
2019-04-07T17:25:34.610Z,31.20
2019-04-07T17:28:04.051Z,32.20
2019-04-07T17:30:32.872Z,32.00
2019-04-07T17:33:03.229Z,32.70
2019-04-07T17:35:32.820Z,33.10
2019-04-07T17:38:05.385Z,33.20
2019-04-07T17:40:35.369Z,33.40
2019-04-07T17:43:28.870Z,33.60
2019-04-07T17:46:24.845Z,33.30
2019-04-07T17:48:58.370Z,34.40
2019-04-07T17:51:36.314Z,34.30
2019-04-07T17:54:22.994Z,34.60
2019-04-07T17:57:13.359Z,34.90
2019-04-07T18:00:06.248Z,35.40
2019-04-07T18:03:05.277Z,35.70
2019-04-07T18:06:04.261Z,36.20
2019-04-07T18:08:45.857Z,36.70
2019-04-07T18:11:33.942Z,37.10
2019-04-07T18:14:12.672Z,37.80
2019-04-07T18:17:02.815Z,37.80
2019-04-07T18:19:50.521Z,38.10
2019-04-07T18:22:39.094Z,38.40
2019-04-07T18:25:33.289Z,38.70
2019-04-07T18:28:12.188Z,39.10
2019-04-07T18:31:03.010Z,39.50
2019-04-07T18:34:04.706Z,39.70
2019-04-07T18:36:40.605Z,40.10
2019-04-07T18:39:37.077Z,40.40
2019-04-07T18:42:20.894Z,41.00
2019-04-07T18:44:57.474Z,41.10
2019-04-07T18:47:47.183Z,41.50
2019-04-07T18:50:45.454Z,41.50
2019-04-07T18:53:31.881Z,41.60
2019-04-07T18:56:28.094Z,41.80
2019-04-07T18:59:35.785Z,42.00
2019-04-07T19:02:22.853Z,42.30
2019-04-07T19:05:10.500Z,42.30
2019-04-07T19:07:52.869Z,42.70
2019-04-07T19:10:38.941Z,43.10
2019-04-07T19:13:35.827Z,43.10
2019-04-07T19:16:27.768Z,43.30
2019-04-07T19:19:27.774Z,43.40
2019-04-07T19:22:09.414Z,43.70
2019-04-07T19:24:47.497Z,44.00
2019-04-07T19:27:33.340Z,44.30
2019-04-07T19:30:20.569Z,44.60
2019-04-07T19:33:07.866Z,44.90
2019-04-07T19:35:44.655Z,45.20
2019-04-07T19:38:30.097Z,45.50
2019-04-07T19:41:20.200Z,45.90
2019-04-07T19:43:56.529Z,46.20
2019-04-07T19:46:44.134Z,48.10
2019-04-07T19:49:22.898Z,47.90
2019-04-07T19:52:09.469Z,47.90
2019-04-07T19:54:48.672Z,48.10
2019-04-07T19:57:27.894Z,48.10
2019-04-07T20:00:25.788Z,48.30
2019-04-07T20:03:15.791Z,48.50
2019-04-07T20:05:58.503Z,48.70
2019-04-07T20:08:41.645Z,49.10
2019-04-07T20:11:38.959Z,49.20
2019-04-07T20:14:22.769Z,50.00
2019-04-07T20:17:06.244Z,50.10
2019-04-07T20:19:53.621Z,50.30
2019-04-07T20:22:49.359Z,50.50
2019-04-07T20:25:28.705Z,50.70
2019-04-07T20:28:03.981Z,51.00
2019-04-07T20:31:09.234Z,51.20
2019-04-07T20:33:56.892Z,51.40
2019-04-07T20:36:42.583Z,51.50
2019-04-07T20:39:15.792Z,51.60
2019-04-07T20:42:01.462Z,51.80
2019-04-07T20:44:44.829Z,52.00
2019-04-07T20:47:36.207Z,52.30
2019-04-07T20:50:22.086Z,52.60
2019-04-07T20:53:19.551Z,54.20
2019-04-07T20:56:03.983Z,54.40
2019-04-07T20:58:53.780Z,53.80
2019-04-07T21:01:38.688Z,54.00
2019-04-07T21:04:28.728Z,54.00
2019-04-07T21:07:05.531Z,54.20
2019-04-07T21:09:38.554Z,54.10
2019-04-07T21:12:21.088Z,54.30
2019-04-07T21:15:16.898Z,54.40
2019-04-07T21:17:38.336Z,54.50
2019-04-07T21:20:29.966Z,54.60
2019-04-07T21:23:18.621Z,54.90
2019-04-07T21:26:12.255Z,55.10
2019-04-07T21:28:52.506Z,56.80
2019-04-07T21:31:46.547Z,56.30
2019-04-07T21:34:32.384Z,56.20
2019-04-07T21:37:13.300Z,56.20
2019-04-07T21:39:56.800Z,56.20
2019-04-07T21:42:38.886Z,56.40
2019-04-07T21:45:33.025Z,56.50
2019-04-07T21:48:07.180Z,56.60
2019-04-07T21:50:50.493Z,56.70
2019-04-07T21:53:30.454Z,56.80
2019-04-07T21:56:14.384Z,57.00
2019-04-07T21:58:51.953Z,57.10
2019-04-07T22:01:41.176Z,57.30
2019-04-07T22:04:34.295Z,58.60
2019-04-07T22:07:37.530Z,58.30
2019-04-07T22:10:06.108Z,58.30
2019-04-07T22:12:33.995Z,58.30
2019-04-07T22:15:02.431Z,58.40
2019-04-07T22:17:34.261Z,58.50
2019-04-07T22:20:01.123Z,58.70
2019-04-07T22:22:29.079Z,58.80
2019-04-07T22:24:58.018Z,58.90
2019-04-07T22:27:27.291Z,59.00
2019-04-07T22:29:59.547Z,59.10
2019-04-07T22:32:26.886Z,59.20
2019-04-07T22:34:55.895Z,59.30
2019-04-07T22:37:23.542Z,59.60
2019-04-07T22:39:51.108Z,59.70
2019-04-07T22:42:19.269Z,60.80
2019-04-07T22:44:47.377Z,61.20
2019-04-07T22:47:15.920Z,60.80
2019-04-07T22:49:45.076Z,60.80
2019-04-07T22:52:16.003Z,60.80
2019-04-07T22:54:42.242Z,60.90
2019-04-07T22:57:13.853Z,61.10
2019-04-07T22:59:39.843Z,61.20
2019-04-07T23:02:07.567Z,61.60
2019-04-07T23:04:36.399Z,61.80
2019-04-07T23:07:04.367Z,62.00
2019-04-07T23:09:32.099Z,62.20
2019-04-07T23:12:01.587Z,62.30
2019-04-07T23:14:29.454Z,62.50
2019-04-07T23:16:57.030Z,62.70
2019-04-07T23:19:24.924Z,63.10
2019-04-07T23:21:53.430Z,63.30
2019-04-07T23:24:21.358Z,64.70
2019-04-07T23:26:48.950Z,64.50
2019-04-07T23:29:16.501Z,64.60
2019-04-07T23:31:44.189Z,64.60
2019-04-07T23:34:11.735Z,64.60
2019-04-07T23:36:39.222Z,64.90
2019-04-07T23:39:06.850Z,65.00
2019-04-07T23:41:35.164Z,65.10
2019-04-07T23:44:03.212Z,65.20
2019-04-07T23:46:31.641Z,65.30
2019-04-07T23:48:59.988Z,66.40
2019-04-07T23:51:28.781Z,66.50
2019-04-07T23:54:12.207Z,67.00
2019-04-07T23:56:41.662Z,66.70
2019-04-07T23:59:10.360Z,66.80
